Rufus, Oregon
Current Conditions -  °F | °C
As of 8:53 PM on Saturday 25 Oct 2014 (Local Time) from KDLS Reporting Station
Overcast Overcast  
Wind Chill: 57°   Ceiling: 4900
Heat Index: 57°   Visibility: 10mi
Dew Point: 44°   Wind: 16mph
Humidity: 62%   Direction: 240°WSW
Pressure: 29.74"   Gusts: NA
Location:  45.69°N, 120.74°W
Report Text: KDLS 260353Z AUTO 24014KT 10SM BKN049 OVC060 14/07 A2974 RMK AO2 PK WND 24035/0256 SLP070 T01390067
Loading
Personal Weather Stations






























Interactive Weather Map
Tropical Storm Tracking
New forecast layout! Learn more

10-Day Weather Forecast

Advertisements
Track Severe Weather on mobile